Terminal Aerodrome Forecast
Issued by NWS

Home | Current Version | Previous Version | Text Only | Print | Product List | Glossary On
Versions: 1 2 3 4 5 6 7 8 9 10 11 12 13 14 15 16 17 18 19 20 21 22 23 24 25 26 27 28 29 30 31 32 33 34 35 36 37 38 39 40 41 42 43 44 45 46 47 48 49 50
000
FTUS45 KBOU 290520
TAFAPA
TAF
KAPA 290520Z 2906/3006 18008KT P6SM SCT060 SCT120 BKN200
     FM291000 18006KT P6SM FEW050 BKN200
     FM291600 26007KT P6SM SCT060 BKN140
     FM291800 02008KT P6SM SCT080 BKN120
     FM292000 08013KT P6SM VCTS SCT060CB BKN080
      TEMPO 2921/3001 VRB20G30KT 5SM TSRA BKN050CB
     FM300100 06008KT 5SM TSRA BKN040CB OVC050
      TEMPO 3001/3005 3SM +SHRA OVC030=

USA.gov is the U.S. government's official web portal to all federal, state and local government web resources and services.